Time;durP1;ratioP1;P1;durP2;ratioP2;P2;SDS_P1;SDS_P2;PMS_P1;PMS_P2;Temp;Humidity;BMP_temperature;BMP_pressure;BME280_temperature;BME280_humidity;BME280_pressure;Samples;Min_cycle;Max_cycle;Signal;HPM_P1;HPM_P2
2023/04/27 00:01:00;;;;;;;5.63;4.10;;;;;;;10.12;48.28;96245.19;4997130;28;20720;-69
2023/04/27 00:03:26;;;;;;;11.50;5.97;;;;;;;10.11;48.48;96236.47;4996585;28;20595;-70
2023/04/27 00:05:51;;;;;;;11.20;5.40;;;;;;;10.12;48.53;96240.78;4993915;28;20656;-69
2023/04/27 00:08:17;;;;;;;36.27;7.00;;;;;;;9.96;49.08;96237.13;4993897;28;20730;-69
2023/04/27 00:10:42;;;;;;;6.40;4.40;;;;;;;9.88;48.84;96242.72;4991855;28;20176;-70
2023/04/27 00:13:07;;;;;;;8.07;4.97;;;;;;;10.01;48.48;96236.94;4991472;28;20204;-69
2023/04/27 00:15:33;;;;;;;13.00;5.07;;;;;;;9.88;49.36;96236.63;4991750;28;20177;-68
2023/04/27 00:17:58;;;;;;;6.80;4.90;;;;;;;9.92;49.32;96232.94;4991479;28;20172;-69
2023/04/27 00:20:24;;;;;;;5.90;4.73;;;;;;;9.90;49.68;96230.41;4990702;28;20256;-69
2023/04/27 00:22:49;;;;;;;11.60;5.33;;;;;;;9.87;49.29;96243.63;4990383;28;20208;-69
2023/04/27 00:25:15;;;;;;;11.73;6.27;;;;;;;9.78;50.08;96241.44;4990233;28;20817;-69
2023/04/27 00:27:40;;;;;;;7.73;4.90;;;;;;;9.87;50.10;96234.91;4990174;28;20204;-68
2023/04/27 00:30:07;;;;;;;7.87;6.33;;;;;;;9.89;49.41;96233.94;4990108;28;20207;-69
2023/04/27 00:32:32;;;;;;;4.90;4.50;;;;;;;9.91;49.91;96237.34;4989906;28;20251;-70
2023/04/27 00:34:58;;;;;;;8.80;4.80;;;;;;;9.88;49.67;96231.41;4990264;28;20837;-69
2023/04/27 00:37:23;;;;;;;6.17;5.13;;;;;;;9.91;50.01;96231.25;4990044;28;20626;-70
2023/04/27 00:39:49;;;;;;;9.73;5.10;;;;;;;9.92;50.21;96228.56;4990036;28;20192;-70
2023/04/27 00:42:18;;;;;;;6.03;4.50;;;;;;;9.77;50.39;96228.38;4989928;28;20176;-70
2023/04/27 00:44:44;;;;;;;13.53;5.60;;;;;;;9.66;50.67;96226.22;4989838;28;20231;-69
2023/04/27 00:47:10;;;;;;;7.20;5.00;;;;;;;9.21;51.90;96235.09;4989513;28;20774;-68
2023/04/27 00:49:35;;;;;;;8.83;4.87;;;;;;;9.52;51.07;96234.69;4989987;28;20420;-69
2023/04/27 00:52:01;;;;;;;7.50;4.77;;;;;;;9.58;50.57;96229.16;4990226;28;20908;-68
2023/04/27 00:54:27;;;;;;;6.47;4.93;;;;;;;9.65;51.04;96219.28;4988291;28;20205;-69
2023/04/27 00:56:52;;;;;;;5.30;4.43;;;;;;;9.61;50.66;96218.53;4989342;28;20185;-70
2023/04/27 00:59:18;;;;;;;8.83;4.93;;;;;;;9.60;51.14;96216.00;4989845;28;20218;-67
2023/04/27 01:01:51;;;;;;;14.20;5.37;;;;;;;9.46;51.35;96221.84;4989639;28;20184;-69
2023/04/27 01:04:16;;;;;;;9.10;5.20;;;;;;;9.44;51.57;96215.81;4989748;28;20432;-69
2023/04/27 01:06:42;;;;;;;9.97;5.63;;;;;;;9.52;50.98;96224.22;4989304;28;20463;-70
2023/04/27 01:09:08;;;;;;;18.37;8.17;;;;;;;9.52;50.73;96219.81;4989662;28;20643;-69
2023/04/27 01:11:34;;;;;;;8.87;5.30;;;;;;;9.50;51.20;96215.56;4989509;28;20188;-70
2023/04/27 01:14:04;;;;;;;8.40;6.20;;;;;;;9.40;52.04;96216.84;4989231;28;20199;-70
2023/04/27 01:16:34;;;;;;;8.10;5.57;;;;;;;9.46;51.75;96225.31;4989142;28;20415;-70
2023/04/27 01:18:59;;;;;;;13.00;5.33;;;;;;;9.39;50.80;96216.00;4989452;28;20845;-70
2023/04/27 01:21:26;;;;;;;9.47;5.20;;;;;;;9.48;51.15;96223.47;4989332;28;20523;-70
2023/04/27 01:23:51;;;;;;;5.50;4.57;;;;;;;9.35;51.28;96219.66;4989191;28;20519;-70
2023/04/27 01:26:17;;;;;;;6.00;4.70;;;;;;;9.39;50.88;96210.75;4989174;28;20416;-70
2023/04/27 01:28:42;;;;;;;6.43;5.50;;;;;;;9.47;51.04;96221.78;4989187;28;20207;-70
2023/04/27 01:31:10;;;;;;;6.67;5.20;;;;;;;9.30;51.47;96216.38;4989092;28;20177;-68
2023/04/27 01:33:36;;;;;;;5.13;4.63;;;;;;;9.34;51.13;96217.97;4988894;28;20678;-70
2023/04/27 01:36:01;;;;;;;7.10;4.90;;;;;;;9.21;52.27;96214.16;4988693;28;20408;-68
2023/04/27 01:38:26;;;;;;;5.40;4.77;;;;;;;9.20;52.32;96220.31;4989023;28;20172;-70
2023/04/27 01:40:54;;;;;;;9.00;5.97;;;;;;;9.06;52.54;96224.34;4988939;28;20192;-69
2023/04/27 01:43:20;;;;;;;6.87;5.43;;;;;;;9.17;52.39;96217.81;4989038;28;20272;-69
2023/04/27 01:45:47;;;;;;;8.23;5.27;;;;;;;9.19;53.08;96229.06;4987288;28;21220;-69
2023/04/27 01:48:12;;;;;;;19.53;6.70;;;;;;;9.08;53.20;96235.59;4988623;28;20463;-69
2023/04/27 01:50:38;;;;;;;6.93;4.60;;;;;;;9.13;53.24;96227.56;4988638;28;20420;-69
2023/04/27 01:53:03;;;;;;;23.03;6.93;;;;;;;9.06;53.21;96240.03;4988261;28;20266;-69
2023/04/27 01:55:29;;;;;;;21.27;8.43;;;;;;;9.08;53.84;96234.75;4988348;28;20173;-69
2023/04/27 01:57:54;;;;;;;9.43;5.67;;;;;;;9.04;54.31;96247.09;4988545;28;20169;-70
2023/04/27 02:00:20;;;;;;;8.70;5.57;;;;;;;9.07;53.74;96239.16;4988565;28;20292;-69
2023/04/27 02:02:45;;;;;;;16.60;6.40;;;;;;;9.08;53.49;96246.06;4988465;28;20280;-69
2023/04/27 02:05:11;;;;;;;9.00;6.70;;;;;;;8.99;53.70;96250.81;4988507;28;20175;-69
2023/04/27 02:07:36;;;;;;;10.33;5.67;;;;;;;9.01;54.33;96244.63;4988317;28;20774;-69
2023/04/27 02:10:02;;;;;;;24.93;7.33;;;;;;;8.98;53.57;96252.59;4988448;28;20243;-70
2023/04/27 02:12:27;;;;;;;8.33;5.30;;;;;;;9.07;53.60;96246.13;4988312;28;20238;-70
2023/04/27 02:14:53;;;;;;;11.57;6.30;;;;;;;8.97;53.81;96242.19;4987698;28;20165;-69
2023/04/27 02:17:18;;;;;;;8.10;5.77;;;;;;;8.93;53.77;96237.97;4988233;28;20188;-69
2023/04/27 02:19:44;;;;;;;9.17;5.67;;;;;;;8.81;53.77;96247.16;4987186;28;20259;-70
2023/04/27 02:22:09;;;;;;;8.10;5.20;;;;;;;8.92;52.85;96246.75;4988272;28;20272;-69
2023/04/27 02:24:35;;;;;;;9.73;5.30;;;;;;;8.78;53.25;96242.91;4988121;28;20205;-69
2023/04/27 02:27:01;;;;;;;8.07;5.40;;;;;;;8.84;53.94;96258.38;4987905;28;20200;-69
2023/04/27 02:29:29;;;;;;;24.53;8.60;;;;;;;8.81;53.43;96255.00;4986653;28;20169;-69
2023/04/27 02:31:55;;;;;;;18.70;9.33;;;;;;;8.82;53.22;96251.50;4987784;28;20180;-69
2023/04/27 02:34:20;;;;;;;19.93;6.17;;;;;;;8.65;53.20;96257.41;4988217;28;20527;-69
2023/04/27 02:36:46;;;;;;;7.63;5.70;;;;;;;8.65;53.53;96260.00;4987709;28;20275;-68
2023/04/27 02:39:11;;;;;;;8.20;5.90;;;;;;;8.80;53.05;96261.16;4987581;28;20200;-69
2023/04/27 02:41:37;;;;;;;7.70;5.27;;;;;;;8.74;54.02;96264.00;4987852;28;20190;-70
2023/04/27 02:44:02;;;;;;;13.60;5.73;;;;;;;8.74;54.81;96258.78;4987856;28;20304;-69
2023/04/27 02:46:28;;;;;;;9.73;5.03;;;;;;;8.68;55.19;96265.97;4987429;28;20540;-69
2023/04/27 02:48:55;;;;;;;8.83;6.40;;;;;;;8.68;54.90;96265.13;4987727;28;20252;-69
2023/04/27 02:51:20;;;;;;;8.53;6.37;;;;;;;8.65;55.46;96257.41;4988073;28;20259;-70
2023/04/27 02:53:46;;;;;;;16.73;6.57;;;;;;;8.80;55.53;96261.16;4987895;28;20439;-70
2023/04/27 02:56:11;;;;;;;7.70;5.93;;;;;;;8.63;54.75;96257.44;4987631;28;20790;-69
2023/04/27 02:58:37;;;;;;;7.90;5.53;;;;;;;8.71;55.38;96257.13;4987836;28;20248;-70
2023/04/27 03:01:02;;;;;;;10.83;5.40;;;;;;;8.50;55.40;96257.97;4987989;28;20169;-70
2023/04/27 03:03:28;;;;;;;6.80;5.80;;;;;;;8.53;54.42;96258.72;4987814;28;20239;-69
2023/04/27 03:05:53;;;;;;;6.17;5.57;;;;;;;8.52;54.69;96259.59;4987601;28;20655;-70
2023/04/27 03:08:19;;;;;;;7.70;6.10;;;;;;;8.45;54.56;96258.97;4987549;28;20197;-69
2023/04/27 03:10:44;;;;;;;8.53;5.63;;;;;;;8.46;54.48;96257.25;4987840;28;20544;-69
2023/04/27 03:13:10;;;;;;;24.03;7.50;;;;;;;8.48;55.03;96258.03;4987636;28;20197;-70
2023/04/27 03:15:36;;;;;;;12.17;6.23;;;;;;;8.47;54.82;96253.69;4987681;28;20247;-68
2023/04/27 03:18:01;;;;;;;32.37;21.37;;;;;;;8.44;55.12;96262.53;4987655;28;20519;-69
2023/04/27 03:20:27;;;;;;;23.10;14.53;;;;;;;8.43;54.29;96258.22;4987825;28;20250;-69
2023/04/27 03:22:55;;;;;;;19.73;8.07;;;;;;;8.41;54.56;96261.75;4987820;28;20682;-69
2023/04/27 03:25:21;;;;;;;25.93;9.60;;;;;;;8.45;54.19;96266.81;4988697;28;20209;-70
2023/04/27 03:27:47;;;;;;;47.27;15.00;;;;;;;8.39;54.11;96268.81;4991106;28;20490;-68
2023/04/27 03:30:12;;;;;;;23.80;7.10;;;;;;;8.36;54.88;96272.41;4991684;28;20173;-69
2023/04/27 03:32:38;;;;;;;33.00;7.90;;;;;;;8.25;54.59;96275.38;4991440;28;20231;-69
2023/04/27 03:35:04;;;;;;;21.73;7.90;;;;;;;8.33;54.30;96271.63;4991532;28;20169;-70
2023/04/27 03:37:30;;;;;;;34.00;8.33;;;;;;;8.29;54.23;96276.13;4991561;28;20157;-70
2023/04/27 03:39:55;;;;;;;26.87;8.50;;;;;;;8.34;54.67;96273.34;4992165;28;20993;-69
2023/04/27 03:42:21;;;;;;;44.10;11.40;;;;;;;8.31;54.10;96273.47;4991715;28;20184;-69
2023/04/27 03:44:46;;;;;;;27.77;8.17;;;;;;;8.24;54.59;96281.53;4992173;28;20168;-69
2023/04/27 03:47:12;;;;;;;20.87;8.07;;;;;;;8.31;54.97;96279.53;4991868;28;20207;-70
2023/04/27 03:49:37;;;;;;;18.67;7.67;;;;;;;8.22;54.75;96283.34;4992112;28;20172;-71
2023/04/27 03:52:03;;;;;;;11.30;7.10;;;;;;;8.32;55.07;96285.63;4991612;28;20176;-70
2023/04/27 03:54:31;;;;;;;10.23;7.73;;;;;;;8.32;54.91;96301.31;4991935;28;20193;-69
2023/04/27 03:56:57;;;;;;;11.03;6.93;;;;;;;8.32;55.62;96291.72;4991451;28;20180;-69
2023/04/27 03:59:22;;;;;;;11.70;6.87;;;;;;;8.08;55.89;96293.47;4991232;28;20523;-69
2023/04/27 04:01:48;;;;;;;18.40;7.43;;;;;;;8.27;55.80;96286.66;4990945;28;20223;-69
2023/04/27 04:04:13;;;;;;;38.70;9.50;;;;;;;8.16;55.52;96290.56;4990767;28;20185;-69
2023/04/27 04:06:38;;;;;;;10.00;6.30;;;;;;;8.10;56.12;96294.22;4990542;28;20189;-69
2023/04/27 04:09:04;;;;;;;7.17;5.97;;;;;;;8.07;56.00;96300.41;4990863;28;20365;-69
2023/04/27 04:11:29;;;;;;;19.37;7.43;;;;;;;8.10;56.27;96291.63;4990699;28;20175;-70
2023/04/27 04:13:55;;;;;;;16.80;7.40;;;;;;;8.09;55.73;96295.16;4990623;28;20260;-68
2023/04/27 04:16:20;;;;;;;12.83;6.37;;;;;;;8.12;55.33;96289.81;4990457;28;20169;-69
2023/04/27 04:18:46;;;;;;;14.77;7.27;;;;;;;8.07;55.33;96294.34;4990910;28;20255;-70
2023/04/27 04:21:11;;;;;;;16.80;7.47;;;;;;;8.11;55.96;96298.56;4990660;28;20176;-70
2023/04/27 04:23:39;;;;;;;30.27;7.73;;;;;;;8.17;56.23;96305.31;4990262;28;20188;-70
2023/04/27 04:26:05;;;;;;;45.20;8.00;;;;;;;7.92;56.88;96306.19;4990423;28;20192;-70
2023/04/27 04:28:31;;;;;;;8.30;6.73;;;;;;;8.15;55.77;96297.56;4990527;28;20463;-69
2023/04/27 04:30:56;;;;;;;42.77;8.57;;;;;;;8.11;56.18;96297.72;4990304;28;20177;-70
2023/04/27 04:33:21;;;;;;;35.10;7.00;;;;;;;8.10;56.27;96309.06;4988893;28;20253;-70
2023/04/27 04:35:47;;;;;;;24.17;7.90;;;;;;;8.20;55.16;96306.09;4986259;28;20181;-69
2023/04/27 04:38:13;;;;;;;37.10;9.00;;;;;;;8.32;54.56;96312.63;4979421;28;20555;-69
2023/04/27 04:40:39;;;;;;;17.80;7.00;;;;;;;8.20;55.25;96305.25;4983427;28;20205;-70
2023/04/27 04:43:05;;;;;;;10.77;6.30;;;;;;;8.24;55.17;96307.69;4989542;28;20205;-70
2023/04/27 04:45:30;;;;;;;164.50;22.10;;;;;;;8.34;54.60;96304.72;4988996;28;20411;-69
2023/04/27 04:48:02;;;;;;;68.03;12.50;;;;;;;8.33;54.70;96300.41;4987127;28;21104;-71
2023/04/27 04:50:28;;;;;;;8.90;6.30;;;;;;;8.33;54.76;96308.25;4987624;28;20181;-70
2023/04/27 04:52:53;;;;;;;16.70;8.30;;;;;;;9.25;68.46;96310.00;4986213;28;20529;-70
2023/04/27 04:55:19;;;;;;;19.27;7.40;;;;;;;10.31;61.60;96302.94;4989192;28;20192;-69
2023/04/27 04:57:47;;;;;;;12.70;7.10;;;;;;;10.62;54.22;96302.41;5006673;28;20172;-69
2023/04/27 05:00:13;;;;;;;11.80;6.67;;;;;;;10.69;54.09;96305.59;5006738;28;20204;-69
2023/04/27 05:02:39;;;;;;;20.37;12.57;;;;;;;9.70;50.54;96307.25;4992276;28;20569;-69
2023/04/27 05:05:05;;;;;;;59.33;21.00;;;;;;;8.97;52.19;96311.06;4998601;28;20807;-69
2023/04/27 05:07:34;;;;;;;24.90;14.53;;;;;;;8.90;52.85;96317.47;5006722;28;20494;-71
2023/04/27 05:09:59;;;;;;;19.33;10.10;;;;;;;10.41;65.58;96321.75;5006237;28;20419;-70
2023/04/27 05:12:28;;;;;;;21.20;8.40;;;;;;;9.81;51.10;96312.06;4993023;28;20814;-70
2023/04/27 05:14:53;;;;;;;11.70;7.10;;;;;;;9.25;52.17;96316.06;4982514;28;20283;-71
2023/04/27 05:17:19;;;;;;;9.17;7.63;;;;;;;8.95;52.89;96327.75;4994879;28;20479;-70
2023/04/27 05:19:45;;;;;;;11.10;7.40;;;;;;;8.86;53.05;96329.81;4981869;28;20186;-71
2023/04/27 05:22:10;;;;;;;9.73;7.80;;;;;;;8.96;52.82;96327.69;4973983;28;20178;-71
2023/04/27 05:24:36;;;;;;;17.33;8.43;;;;;;;8.81;53.24;96333.50;4977693;28;20209;-71
2023/04/27 05:27:02;;;;;;;8.07;6.40;;;;;;;8.71;53.65;96330.38;4970493;28;20681;-70
2023/04/27 05:29:28;;;;;;;13.13;6.10;;;;;;;8.83;53.61;96329.91;4974011;28;20280;-69
2023/04/27 05:31:54;;;;;;;14.10;7.37;;;;;;;8.87;53.30;96328.91;4965616;28;20201;-71
2023/04/27 05:34:27;;;;;;;18.20;7.70;;;;;;;8.95;52.56;96333.81;4979387;28;20447;-71
2023/04/27 05:36:53;;;;;;;13.10;6.80;;;;;;;8.87;53.08;96341.97;4972817;28;20436;-71
2023/04/27 05:39:18;;;;;;;12.03;6.97;;;;;;;8.99;53.06;96337.19;4979938;28;20805;-69
2023/04/27 05:41:44;;;;;;;11.40;7.00;;;;;;;9.02;52.71;96330.06;4976281;28;20235;-69
2023/04/27 05:44:10;;;;;;;13.20;7.10;;;;;;;9.03;52.17;96323.94;4977328;28;20195;-69
2023/04/27 05:46:35;;;;;;;14.03;6.50;;;;;;;9.09;52.59;96325.44;4974190;28;20177;-70
2023/04/27 05:49:00;;;;;;;10.90;7.37;;;;;;;9.10;52.33;96321.94;4981356;28;20180;-69
2023/04/27 05:51:27;;;;;;;8.87;7.30;;;;;;;9.21;51.79;96324.09;4979920;28;20830;-71
2023/04/27 05:54:02;;;;;;;15.33;7.23;;;;;;;9.28;51.42;96322.94;4976032;28;20205;-69
2023/04/27 05:56:27;;;;;;;20.57;7.63;;;;;;;9.30;51.57;96323.75;4972467;28;20444;-69
2023/04/27 05:58:53;;;;;;;9.17;7.27;;;;;;;9.29;51.35;96336.00;4975953;28;20897;-70
2023/04/27 06:01:19;;;;;;;15.47;7.60;;;;;;;9.35;51.27;96318.31;4982687;28;20647;-69
2023/04/27 06:03:44;;;;;;;16.17;7.37;;;;;;;9.12;50.81;96330.59;4977301;28;20238;-70
2023/04/27 06:06:10;;;;;;;21.93;6.90;;;;;;;9.03;52.06;96330.94;4980903;28;20177;-70
2023/04/27 06:08:36;;;;;;;24.23;7.20;;;;;;;9.29;51.63;96325.53;4982922;28;20215;-71
2023/04/27 06:11:02;;;;;;;30.07;7.97;;;;;;;9.31;50.99;96334.16;4991715;28;20187;-70
2023/04/27 06:13:27;;;;;;;18.63;7.30;;;;;;;9.21;50.47;96338.06;5000499;28;20439;-70
2023/04/27 06:15:56;;;;;;;20.30;7.67;;;;;;;9.36;50.46;96338.38;4997454;28;20177;-68
2023/04/27 06:18:23;;;;;;;18.90;9.27;;;;;;;9.47;49.96;96341.41;4990442;28;20235;-70
2023/04/27 06:20:49;;;;;;;12.37;8.17;;;;;;;9.26;50.23;96343.09;4984555;28;20988;-69
2023/04/27 06:23:14;;;;;;;15.17;8.10;;;;;;;9.49;49.86;96345.66;4984401;28;20460;-70
2023/04/27 06:25:40;;;;;;;11.47;7.57;;;;;;;9.62;49.57;96343.41;4982362;28;20608;-69
2023/04/27 06:28:05;;;;;;;12.70;7.10;;;;;;;9.45;50.09;96351.97;4996906;28;20232;-70
2023/04/27 06:30:31;;;;;;;16.87;7.93;;;;;;;9.39;50.17;96340.88;4991162;28;20177;-70
2023/04/27 06:32:56;;;;;;;8.93;7.80;;;;;;;8.98;52.60;96353.81;5003805;28;20196;-70
2023/04/27 06:35:22;;;;;;;16.03;7.53;;;;;;;9.30;51.85;96353.41;5002865;28;20180;-69
2023/04/27 06:37:47;;;;;;;14.07;7.07;;;;;;;9.07;51.06;96358.69;5004000;28;20251;-70
2023/04/27 06:40:13;;;;;;;10.17;6.67;;;;;;;9.21;51.99;96352.91;4986355;28;20817;-69
2023/04/27 06:42:38;;;;;;;8.90;7.53;;;;;;;9.07;51.68;96353.44;4989596;28;20266;-69
2023/04/27 06:45:04;;;;;;;16.53;7.30;;;;;;;9.51;51.76;96353.47;4984115;28;20187;-69
2023/04/27 06:47:30;;;;;;;12.07;7.07;;;;;;;9.38;51.23;96362.72;4991429;28;20197;-69
2023/04/27 06:49:55;;;;;;;7.53;6.57;;;;;;;9.18;51.99;96366.13;4987619;28;20408;-70
2023/04/27 06:52:21;;;;;;;11.43;6.97;;;;;;;9.00;53.20;96368.56;4987028;28;20203;-69
2023/04/27 06:54:47;;;;;;;24.13;7.60;;;;;;;9.10;53.02;96367.28;4986372;28;20210;-69
2023/04/27 06:57:12;;;;;;;30.77;8.43;;;;;;;9.24;51.44;96366.75;4999332;28;20291;-69
2023/04/27 06:59:37;;;;;;;14.10;7.70;;;;;;;9.27;51.99;96363.16;5005210;28;20259;-70
2023/04/27 07:02:03;;;;;;;11.27;7.40;;;;;;;9.42;51.86;96364.31;5006699;28;20176;-70
2023/04/27 07:04:29;;;;;;;13.43;9.03;;;;;;;9.53;51.36;96362.13;4998383;28;20258;-69
2023/04/27 07:06:55;;;;;;;24.43;10.77;;;;;;;9.61;51.54;96364.41;4986653;28;20204;-69
2023/04/27 07:09:20;;;;;;;16.83;10.53;;;;;;;10.03;50.32;96366.19;4984353;28;20537;-69
2023/04/27 07:11:46;;;;;;;11.27;10.20;;;;;;;9.85;50.85;96366.06;4986798;28;20505;-69
2023/04/27 07:14:11;;;;;;;17.40;13.90;;;;;;;10.16;50.34;96365.59;4986958;28;20266;-69
2023/04/27 07:16:36;;;;;;;21.90;11.90;;;;;;;10.65;48.62;96369.66;4986690;28;20168;-68
2023/04/27 07:19:02;;;;;;;27.63;13.03;;;;;;;10.98;47.92;96364.63;4986898;28;20276;-69
2023/04/27 07:21:27;;;;;;;29.20;12.37;;;;;;;10.99;48.28;96364.56;4992776;28;20195;-68
2023/04/27 07:23:53;;;;;;;19.13;10.67;;;;;;;10.78;48.50;96361.16;4997202;28;20200;-69
2023/04/27 07:26:20;;;;;;;15.00;10.37;;;;;;;10.79;48.83;96367.25;5000898;28;20174;-70
2023/04/27 07:28:46;;;;;;;16.23;9.67;;;;;;;11.21;48.08;96361.78;5006627;28;20457;-68
2023/04/27 07:31:11;;;;;;;17.97;10.10;;;;;;;11.38;47.79;96360.16;5002268;28;20790;-68
2023/04/27 07:33:37;;;;;;;12.13;9.10;;;;;;;11.32;47.48;96368.34;4988885;28;20204;-69
2023/04/27 07:36:04;;;;;;;11.23;8.53;;;;;;;11.47;47.54;96362.34;4993571;28;20176;-69
2023/04/27 07:38:30;;;;;;;25.03;9.17;;;;;;;11.95;46.38;96363.53;5000532;28;20534;-69
2023/04/27 07:40:57;;;;;;;11.47;8.90;;;;;;;11.96;46.29;96361.75;4990066;28;20439;-68
2023/04/27 07:43:24;;;;;;;95.70;15.20;;;;;;;11.93;46.79;96365.41;4997807;28;20303;-69
2023/04/27 07:45:50;;;;;;;28.53;11.23;;;;;;;11.43;47.51;96371.28;4993328;28;20436;-68
2023/04/27 07:48:15;;;;;;;13.07;8.50;;;;;;;12.06;46.55;96363.00;4997851;28;20450;-68
2023/04/27 07:50:44;;;;;;;13.97;9.73;;;;;;;12.22;45.74;96352.53;4999385;28;20187;-70
2023/04/27 07:53:10;;;;;;;18.40;9.90;;;;;;;11.83;46.87;96361.47;4998328;28;20188;-68
2023/04/27 07:55:35;;;;;;;68.60;15.07;;;;;;;12.41;45.38;96355.06;5006034;28;20465;-69
2023/04/27 07:58:01;;;;;;;27.00;11.10;;;;;;;13.00;43.70;96350.22;5006097;28;20258;-68
2023/04/27 08:00:27;;;;;;;25.37;12.23;;;;;;;12.87;44.89;96355.25;4992451;28;20209;-67
2023/04/27 08:02:53;;;;;;;19.60;11.73;;;;;;;12.92;44.44;96354.09;4992800;28;20207;-70
2023/04/27 08:05:19;;;;;;;18.00;12.73;;;;;;;13.33;42.77;96355.44;4993509;28;20185;-68
2023/04/27 08:07:44;;;;;;;19.50;15.63;;;;;;;13.73;42.72;96351.41;5004068;28;20454;-68
2023/04/27 08:10:10;;;;;;;25.20;16.70;;;;;;;12.97;44.12;96352.97;4979699;28;20174;-67
2023/04/27 08:12:35;;;;;;;27.80;19.77;;;;;;;13.03;43.75;96348.25;4984218;28;20186;-67
2023/04/27 08:15:01;;;;;;;31.40;19.13;;;;;;;13.04;44.22;96357.84;4992209;28;20181;-69
2023/04/27 08:17:26;;;;;;;33.50;18.13;;;;;;;13.42;43.04;96338.28;4990440;28;20173;-69
2023/04/27 08:19:52;;;;;;;29.80;16.13;;;;;;;14.34;41.90;96343.47;4996741;28;20172;-67
2023/04/27 08:22:17;;;;;;;22.83;13.57;;;;;;;14.51;40.77;96338.03;4996327;28;20939;-70
2023/04/27 08:24:43;;;;;;;22.80;15.00;;;;;;;13.92;42.10;96339.78;5007703;28;20168;-69
2023/04/27 08:27:08;;;;;;;23.27;12.70;;;;;;;13.45;43.62;96346.00;5008099;28;20287;-70
2023/04/27 08:29:34;;;;;;;16.00;11.43;;;;;;;13.62;42.59;96343.25;4986849;28;20296;-68
2023/04/27 08:32:01;;;;;;;28.30;12.93;;;;;;;14.23;41.97;96338.84;5003505;28;20622;-69
2023/04/27 08:34:27;;;;;;;26.50;11.00;;;;;;;15.15;39.97;96333.22;4989483;28;20193;-68
2023/04/27 08:36:53;;;;;;;19.10;12.30;;;;;;;15.43;39.44;96328.81;4984224;28;20490;-69
2023/04/27 08:39:21;;;;;;;24.93;14.30;;;;;;;15.50;39.32;96332.78;5000749;28;20411;-68
2023/04/27 08:41:47;;;;;;;19.23;11.83;;;;;;;15.72;39.12;96331.41;5009459;28;20176;-68
2023/04/27 08:44:12;;;;;;;18.37;13.50;;;;;;;14.94;41.65;96331.94;5004396;28;20431;-69
2023/04/27 08:46:38;;;;;;;20.10;12.00;;;;;;;15.55;39.84;96332.47;4997128;28;20187;-70
2023/04/27 08:49:05;;;;;;;28.17;11.93;;;;;;;15.00;40.86;96329.75;4989417;28;20205;-67
2023/04/27 08:51:31;;;;;;;16.70;11.30;;;;;;;15.43;39.90;96331.47;4989200;28;20412;-69
2023/04/27 08:53:57;;;;;;;25.80;10.90;;;;;;;15.18;40.19;96334.81;4974123;28;20529;-68
2023/04/27 08:56:24;;;;;;;12.80;10.17;;;;;;;15.25;40.23;96333.50;4996948;28;21151;-70
2023/04/27 08:58:55;;;;;;;15.47;10.20;;;;;;;16.09;38.95;96319.22;5008419;28;20470;-68
2023/04/27 09:01:22;;;;;;;17.60;9.03;;;;;;;16.21;37.79;96322.84;5008278;28;20439;-68
2023/04/27 09:03:48;;;;;;;13.40;10.10;;;;;;;14.87;39.65;96327.97;4995227;28;21091;-69
2023/04/27 09:06:15;;;;;;;28.63;10.90;;;;;;;14.98;40.66;96321.06;5002792;28;20490;-68
2023/04/27 09:08:42;;;;;;;13.70;9.90;;;;;;;15.63;39.39;96327.53;4996745;28;20464;-69
2023/04/27 09:11:07;;;;;;;12.37;8.63;;;;;;;15.84;38.28;96322.66;4994680;28;21328;-68
2023/04/27 09:13:41;;;;;;;22.90;10.23;;;;;;;15.28;39.16;96314.78;4994780;28;20458;-68
2023/04/27 09:16:07;;;;;;;18.63;9.57;;;;;;;15.46;39.73;96324.16;4997019;28;20932;-68
2023/04/27 09:18:36;;;;;;;10.97;9.30;;;;;;;15.16;39.43;96318.22;5008843;28;20408;-69
2023/04/27 09:21:03;;;;;;;11.80;9.10;;;;;;;15.26;39.41;96311.41;5008503;28;20164;-70
2023/04/27 09:23:34;;;;;;;11.80;8.50;;;;;;;16.39;37.90;96303.03;5008023;28;20439;-69
2023/04/27 09:26:02;;;;;;;12.03;8.20;;;;;;;16.69;36.47;96304.53;4997016;28;20439;-70
2023/04/27 09:28:29;;;;;;;22.27;9.67;;;;;;;16.06;38.13;96314.13;5004406;28;20486;-68
2023/04/27 09:31:00;;;;;;;15.37;9.57;;;;;;;15.92;38.09;96311.56;5002861;28;20408;-69
2023/04/27 09:33:28;;;;;;;18.50;9.33;;;;;;;16.28;37.96;96303.78;4981273;28;20463;-68
2023/04/27 09:35:55;;;;;;;15.27;8.77;;;;;;;16.09;37.68;96314.78;4997619;28;20440;-69
2023/04/27 09:38:21;;;;;;;12.37;7.37;;;;;;;15.97;38.08;96312.09;5003391;28;20431;-68
2023/04/27 09:40:49;;;;;;;11.13;8.70;;;;;;;15.99;38.38;96310.19;4991818;28;20447;-67
2023/04/27 09:43:14;;;;;;;10.00;7.93;;;;;;;16.34;37.92;96299.03;4993026;28;20828;-68
2023/04/27 09:45:40;;;;;;;11.03;7.80;;;;;;;16.11;38.06;96296.16;5000634;28;20415;-68
2023/04/27 09:48:07;;;;;;;23.67;9.43;;;;;;;15.63;38.41;96303.72;4987496;28;20197;-68
2023/04/27 09:50:40;;;;;;;14.93;7.93;;;;;;;15.77;37.50;96301.03;4969014;28;20291;-69
2023/04/27 09:53:14;;;;;;;16.87;8.37;;;;;;;16.43;36.57;96295.75;4980831;28;20455;-70
2023/04/27 09:55:46;;;;;;;25.60;8.23;;;;;;;17.06;35.90;96294.03;4988295;28;20416;-68
2023/04/27 09:58:33;;;;;;;23.77;9.37;;;;;;;17.20;34.88;96290.38;4987723;28;20412;-68
2023/04/27 10:01:20;;;;;;;20.13;8.27;;;;;;;16.59;35.53;96295.53;4988291;28;21040;-69
2023/04/27 10:04:19;;;;;;;18.27;8.00;;;;;;;17.24;35.28;96297.13;4988086;28;20505;-67
2023/04/27 10:06:56;;;;;;;14.60;8.97;;;;;;;17.70;34.09;96288.47;4987387;28;20910;-68
2023/04/27 10:09:22;;;;;;;12.80;7.80;;;;;;;17.25;35.08;96286.44;4985447;28;20476;-68
2023/04/27 10:11:49;;;;;;;17.73;8.20;;;;;;;16.71;36.81;96284.91;4998273;28;20419;-68
2023/04/27 10:14:17;;;;;;;11.37;7.63;;;;;;;16.67;37.04;96283.44;5003744;28;20839;-68
2023/04/27 10:16:47;;;;;;;21.80;7.67;;;;;;;16.99;36.09;96288.31;4999031;28;20422;-68
2023/04/27 10:19:13;;;;;;;15.00;7.33;;;;;;;17.31;35.54;96282.47;4999892;28;20443;-68
2023/04/27 10:22:02;;;;;;;24.23;8.33;;;;;;;17.53;34.77;96289.72;4996906;28;21063;-68
2023/04/27 10:24:35;;;;;;;32.70;9.80;;;;;;;17.83;34.36;96276.00;5007581;28;20199;-68
2023/04/27 10:27:06;;;;;;;68.97;11.83;;;;;;;18.05;33.65;96275.25;5001854;28;20459;-68
2023/04/27 10:29:43;;;;;;;126.40;20.60;;;;;;;18.41;33.26;96271.56;4998682;28;20477;-68
2023/04/27 10:32:13;;;;;;;128.43;21.33;;;;;;;19.02;32.78;96263.28;5000631;28;20414;-68
2023/04/27 10:34:39;;;;;;;10.37;7.70;;;;;;;19.19;32.65;96258.41;5006468;28;20431;-68
2023/04/27 10:37:09;;;;;;;39.40;9.17;;;;;;;19.18;32.50;96267.34;5006985;28;20407;-68
2023/04/27 10:39:40;;;;;;;22.30;8.93;;;;;;;18.96;32.32;96268.22;5001169;28;21117;-69
2023/04/27 10:42:06;;;;;;;21.53;7.93;;;;;;;17.90;34.24;96274.56;4998743;28;20443;-68
2023/04/27 10:44:33;;;;;;;15.93;8.40;;;;;;;17.55;35.03;96277.16;4993528;28;20455;-69
2023/04/27 10:47:01;;;;;;;14.60;6.73;;;;;;;17.40;38.21;96281.81;4999028;28;20459;-69
2023/04/27 10:49:28;;;;;;;11.90;7.20;;;;;;;17.02;36.46;96277.47;5001217;28;20438;-68
2023/04/27 10:51:57;;;;;;;7.73;6.93;;;;;;;16.89;36.92;96284.59;4998780;28;20908;-69
2023/04/27 10:54:27;;;;;;;8.57;6.40;;;;;;;16.52;38.67;96276.56;4997173;28;20479;-69
2023/04/27 10:56:52;;;;;;;7.80;7.00;;;;;;;16.81;37.83;96276.34;4984792;28;20426;-69
2023/04/27 10:59:18;;;;;;;18.03;7.07;;;;;;;17.60;36.72;96272.41;4997963;28;20447;-68
2023/04/27 11:01:48;;;;;;;15.00;7.20;;;;;;;18.06;34.41;96260.16;4999892;28;20172;-68
2023/04/27 11:04:15;;;;;;;13.63;5.93;;;;;;;18.36;32.96;96255.16;4994843;28;20201;-69
2023/04/27 11:06:42;;;;;;;18.80;6.47;;;;;;;18.74;32.61;96261.09;4992004;28;20434;-70
2023/04/27 11:09:09;;;;;;;43.50;8.10;;;;;;;18.68;32.28;96258.91;4987048;28;20473;-68
2023/04/27 11:11:35;;;;;;;24.20;7.80;;;;;;;18.88;32.49;96260.03;4986797;28;20423;-69
2023/04/27 11:14:02;;;;;;;17.60;7.53;;;;;;;18.60;32.25;96257.69;4983291;28;20454;-68
2023/04/27 11:16:28;;;;;;;28.60;8.43;;;;;;;18.91;32.08;96257.97;5001399;28;20266;-68
2023/04/27 11:18:53;;;;;;;25.30;8.60;;;;;;;19.00;31.77;96249.25;4985227;28;20433;-69
2023/04/27 11:21:20;;;;;;;48.40;12.63;;;;;;;19.16;31.81;96250.69;4998271;28;20916;-67
2023/04/27 11:23:46;;;;;;;52.07;12.77;;;;;;;19.13;31.85;96257.06;5000455;28;20582;-68
2023/04/27 11:26:16;;;;;;;98.90;16.90;;;;;;;18.66;32.64;96253.72;4997971;28;20426;-67